createdAt,value
2022-09-12T00:00:23.402Z,13.20
2022-09-12T00:02:54.426Z,13.20
2022-09-12T00:05:22.461Z,13.20
2022-09-12T00:07:49.660Z,13.20
2022-09-12T00:10:16.953Z,13.10
2022-09-12T00:12:44.155Z,13.10
2022-09-12T00:15:11.784Z,13.10
2022-09-12T00:17:39.606Z,13.00
2022-09-12T00:20:09.249Z,13.00
2022-09-12T00:22:36.805Z,12.90
2022-09-12T00:25:05.088Z,13.00
2022-09-12T00:27:32.434Z,12.90
2022-09-12T00:29:59.558Z,12.90
2022-09-12T00:32:26.691Z,12.90
2022-09-12T00:34:53.927Z,12.90
2022-09-12T00:37:20.979Z,12.90
2022-09-12T00:39:48.099Z,12.90
2022-09-12T00:42:15.404Z,12.90
2022-09-12T00:44:46.832Z,12.90
2022-09-12T00:47:19.630Z,12.90
2022-09-12T00:49:55.863Z,12.90
2022-09-12T00:52:37.836Z,12.90
2022-09-12T00:55:31.909Z,12.80
2022-09-12T00:58:23.011Z,12.80
2022-09-12T01:00:50.355Z,12.80
2022-09-12T01:03:19.711Z,12.80
2022-09-12T01:06:01.590Z,12.70
2022-09-12T01:08:29.578Z,12.70
2022-09-12T01:10:57.940Z,12.70
2022-09-12T01:13:25.270Z,12.80
2022-09-12T01:15:52.943Z,12.70
2022-09-12T01:18:45.649Z,12.70
2022-09-12T01:21:37.582Z,12.70
2022-09-12T01:24:29.419Z,12.70
2022-09-12T01:27:12.579Z,12.60
2022-09-12T01:30:01.004Z,12.60
2022-09-12T01:32:49.831Z,12.60
2022-09-12T01:35:21.376Z,12.60
2022-09-12T01:38:07.402Z,12.50
2022-09-12T01:40:49.382Z,12.50
2022-09-12T01:43:48.601Z,12.50
2022-09-12T01:46:37.634Z,12.50
2022-09-12T01:49:16.641Z,12.40
2022-09-12T01:52:04.822Z,12.40
2022-09-12T01:54:43.651Z,12.40
2022-09-12T01:57:30.182Z,12.40
2022-09-12T02:00:02.012Z,12.40
2022-09-12T02:02:36.120Z,12.30
2022-09-12T02:05:22.023Z,12.30
2022-09-12T02:08:05.133Z,12.30
2022-09-12T02:10:42.262Z,12.20
2022-09-12T02:13:26.111Z,12.20
2022-09-12T02:16:04.140Z,12.20
2022-09-12T02:18:34.110Z,12.20
2022-09-12T02:21:05.625Z,12.10
2022-09-12T02:23:35.059Z,12.10
2022-09-12T02:26:09.141Z,12.10
2022-09-12T02:28:40.866Z,12.10
2022-09-12T02:31:16.788Z,12.00
2022-09-12T02:34:02.260Z,12.00
2022-09-12T02:36:37.048Z,12.00
2022-09-12T02:39:04.507Z,11.90
2022-09-12T02:41:31.746Z,11.90
2022-09-12T02:43:59.040Z,11.90
2022-09-12T02:46:34.652Z,11.90
2022-09-12T02:49:01.944Z,11.90
2022-09-12T02:51:29.265Z,11.90
2022-09-12T02:53:57.393Z,11.80
2022-09-12T02:56:28.608Z,11.80
2022-09-12T02:59:06.957Z,11.80
2022-09-12T03:01:42.944Z,11.70
2022-09-12T03:04:34.868Z,11.60
2022-09-12T03:07:31.713Z,11.50
2022-09-12T03:10:36.531Z,11.50
2022-09-12T03:13:25.065Z,11.50
2022-09-12T03:16:06.796Z,11.50
2022-09-12T03:18:43.952Z,11.50
2022-09-12T03:21:17.189Z,11.50
2022-09-12T03:23:59.139Z,11.50
2022-09-12T03:26:26.308Z,11.40
2022-09-12T03:28:56.173Z,11.40
2022-09-12T03:31:23.321Z,11.40
2022-09-12T03:33:50.741Z,11.40
2022-09-12T03:36:25.772Z,11.40
2022-09-12T03:38:53.262Z,11.30
2022-09-12T03:41:21.211Z,11.30
2022-09-12T03:43:48.650Z,11.30
2022-09-12T03:46:15.874Z,11.30
2022-09-12T03:48:43.352Z,11.20
2022-09-12T03:51:11.077Z,11.20
2022-09-12T03:53:38.307Z,11.10
2022-09-12T03:56:15.403Z,11.10
2022-09-12T03:58:42.889Z,11.10
2022-09-12T04:01:13.209Z,11.10
2022-09-12T04:03:42.074Z,11.20
2022-09-12T04:06:11.127Z,11.10
2022-09-12T04:08:38.817Z,11.10
2022-09-12T04:11:07.802Z,11.10
2022-09-12T04:13:36.929Z,11.10
2022-09-12T04:16:04.955Z,11.20
2022-09-12T04:18:32.742Z,11.10
2022-09-12T04:21:03.744Z,11.10
2022-09-12T04:23:30.947Z,11.00
2022-09-12T04:26:00.489Z,11.00
2022-09-12T04:28:29.361Z,11.00
2022-09-12T04:30:58.019Z,11.00
2022-09-12T04:33:25.323Z,11.00
2022-09-12T04:35:52.590Z,11.00
2022-09-12T04:38:19.920Z,10.90
2022-09-12T04:40:47.922Z,10.90
2022-09-12T04:43:15.300Z,10.90
2022-09-12T04:45:42.556Z,10.90
2022-09-12T04:48:09.717Z,10.90
2022-09-12T04:50:36.910Z,10.90
2022-09-12T04:53:04.029Z,10.90
2022-09-12T04:55:31.209Z,10.90
2022-09-12T04:57:58.859Z,10.90
2022-09-12T05:00:25.987Z,10.90
2022-09-12T05:02:53.037Z,10.90
2022-09-12T05:05:20.238Z,10.90
2022-09-12T05:07:47.506Z,10.90
2022-09-12T05:10:15.020Z,10.90
2022-09-12T05:12:42.472Z,10.90
2022-09-12T05:15:11.864Z,10.80
2022-09-12T05:17:39.075Z,10.90
2022-09-12T05:20:06.945Z,10.90
2022-09-12T05:22:34.295Z,10.80
2022-09-12T05:25:01.753Z,10.90
2022-09-12T05:27:28.989Z,11.00
2022-09-12T05:29:56.581Z,11.00
2022-09-12T05:32:24.027Z,11.00
2022-09-12T05:34:51.317Z,11.00
2022-09-12T05:37:18.631Z,11.00
2022-09-12T05:39:46.519Z,11.10
2022-09-12T05:42:13.792Z,11.10
2022-09-12T05:45:21.702Z,11.10
2022-09-12T05:48:26.311Z,11.10
2022-09-12T05:54:34.810Z,11.20
2022-09-12T06:28:18.475Z,11.70
2022-09-12T07:02:36.985Z,12.70
2022-09-12T07:34:11.230Z,13.80
2022-09-12T07:39:52.734Z,14.00
2022-09-12T07:50:06.290Z,14.10
2022-09-12T07:52:33.728Z,14.20
2022-09-12T07:59:21.529Z,14.30
2022-09-12T08:01:57.451Z,14.40
2022-09-12T08:04:25.024Z,14.50
2022-09-12T08:06:52.544Z,14.50
2022-09-12T08:09:19.846Z,14.60
2022-09-12T08:11:47.286Z,14.60
2022-09-12T08:14:14.845Z,14.70
2022-09-12T08:16:42.303Z,14.70
2022-09-12T08:19:09.548Z,14.70
2022-09-12T08:21:36.967Z,14.80
2022-09-12T08:24:06.242Z,14.90
2022-09-12T08:26:34.315Z,15.00
2022-09-12T08:29:01.645Z,15.10
2022-09-12T08:31:29.033Z,15.10
2022-09-12T08:33:57.775Z,15.20
2022-09-12T08:36:27.592Z,15.30
2022-09-12T08:39:00.711Z,15.50
2022-09-12T08:41:38.732Z,15.50
2022-09-12T08:44:25.927Z,15.60
2022-09-12T08:47:25.574Z,15.70
2022-09-12T08:50:12.209Z,15.80
2022-09-12T08:53:02.599Z,15.90
2022-09-12T08:55:46.019Z,16.00
2022-09-12T08:58:23.013Z,16.10
2022-09-12T09:01:22.661Z,16.30
2022-09-12T09:04:11.168Z,16.30
2022-09-12T09:07:16.190Z,16.50
2022-09-12T09:09:51.891Z,16.60
2022-09-12T09:12:47.269Z,16.70
2022-09-12T09:15:48.851Z,16.80
2022-09-12T09:18:29.636Z,16.90
2022-09-12T09:21:02.180Z,17.00
2022-09-12T09:23:36.632Z,17.10
2022-09-12T09:26:26.881Z,17.20
2022-09-12T09:29:05.353Z,17.30
2022-09-12T09:31:39.898Z,17.40
2022-09-12T09:34:16.090Z,17.50
2022-09-12T09:37:06.275Z,17.60
2022-09-12T09:40:02.317Z,17.70
2022-09-12T09:43:00.763Z,17.80
2022-09-12T09:45:31.217Z,17.90
2022-09-12T09:48:13.913Z,18.00
2022-09-12T09:50:41.405Z,18.10
2022-09-12T09:53:22.626Z,18.40
2022-09-12T09:55:50.314Z,18.70
2022-09-12T09:58:34.377Z,19.10
2022-09-12T10:01:16.435Z,19.50
2022-09-12T10:03:52.348Z,20.00
2022-09-12T10:06:36.554Z,20.30
2022-09-12T10:09:15.980Z,20.50
2022-09-12T10:11:45.900Z,20.60
2022-09-12T10:14:30.356Z,20.70
2022-09-12T10:16:58.940Z,20.80
2022-09-12T10:19:38.758Z,20.90
2022-09-12T10:22:07.849Z,20.90
2022-09-12T10:24:43.887Z,20.90
2022-09-12T10:27:14.111Z,20.90
2022-09-12T10:29:48.634Z,20.90
2022-09-12T10:32:38.312Z,20.90
2022-09-12T10:35:28.483Z,21.00
2022-09-12T10:38:00.345Z,21.00
2022-09-12T10:40:40.307Z,21.00
2022-09-12T10:43:34.875Z,21.00
2022-09-12T10:46:24.066Z,21.00
2022-09-12T10:49:12.203Z,21.00
2022-09-12T10:51:39.683Z,21.10
2022-09-12T10:54:10.926Z,21.20
2022-09-12T10:57:18.454Z,21.20
2022-09-12T11:00:28.005Z,21.30
2022-09-12T11:03:15.688Z,21.50
2022-09-12T11:06:02.066Z,21.60
2022-09-12T11:08:34.909Z,21.60
2022-09-12T11:11:07.995Z,21.70
2022-09-12T11:13:55.929Z,21.70
2022-09-12T11:16:49.000Z,21.90
2022-09-12T11:19:57.555Z,22.10
2022-09-12T11:22:45.231Z,22.20
2022-09-12T11:25:35.782Z,22.20
2022-09-12T11:28:47.810Z,22.20
2022-09-12T11:31:45.712Z,22.20
2022-09-12T11:34:31.451Z,22.20
2022-09-12T11:37:26.532Z,22.20
2022-09-12T11:39:56.779Z,22.30
2022-09-12T11:42:31.087Z,22.30
2022-09-12T11:45:22.802Z,22.40
2022-09-12T11:47:54.653Z,22.40
2022-09-12T11:50:32.263Z,22.50
2022-09-12T11:53:31.300Z,22.50
2022-09-12T11:56:18.875Z,22.50
2022-09-12T11:58:53.461Z,22.50
2022-09-12T12:04:44.238Z,22.40
2022-09-12T12:07:12.373Z,22.50
2022-09-12T12:09:51.390Z,22.50
2022-09-12T12:12:24.519Z,22.40
2022-09-12T12:14:53.877Z,22.30
2022-09-12T12:17:23.606Z,22.20
2022-09-12T12:20:08.339Z,22.20
2022-09-12T12:22:36.350Z,22.20
2022-09-12T12:25:12.574Z,22.10
2022-09-12T12:27:47.448Z,22.20
2022-09-12T12:30:29.910Z,22.10
2022-09-12T12:33:10.360Z,22.00
2022-09-12T12:35:44.122Z,22.00
2022-09-12T12:38:31.418Z,22.00
2022-09-12T12:41:17.299Z,21.90
2022-09-12T12:43:46.201Z,22.00
2022-09-12T12:46:18.297Z,22.00
2022-09-12T12:49:07.182Z,21.90
2022-09-12T12:52:02.343Z,21.90
2022-09-12T12:54:32.174Z,21.90
2022-09-12T12:57:13.305Z,21.90
2022-09-12T13:00:02.755Z,22.00
2022-09-12T13:02:56.936Z,22.00
2022-09-12T13:05:26.671Z,21.90
2022-09-12T13:08:19.393Z,21.90
2022-09-12T13:10:52.593Z,21.90
2022-09-12T13:13:36.280Z,21.90
2022-09-12T13:16:04.065Z,21.90
2022-09-12T13:18:44.369Z,21.90
2022-09-12T13:21:18.340Z,21.90
2022-09-12T13:24:00.001Z,21.90
2022-09-12T13:26:27.476Z,21.90
2022-09-12T13:29:17.543Z,21.90
2022-09-12T13:31:47.548Z,21.90
2022-09-12T13:34:24.268Z,21.90
2022-09-12T13:37:20.138Z,21.90
2022-09-12T13:39:50.133Z,22.00
2022-09-12T13:42:20.458Z,22.00
2022-09-12T13:45:14.947Z,22.10
2022-09-12T13:47:48.134Z,22.00
2022-09-12T13:50:23.039Z,22.00
2022-09-12T13:52:57.417Z,22.00
2022-09-12T13:55:33.867Z,22.00
2022-09-12T13:58:04.469Z,22.00
2022-09-12T14:00:35.384Z,22.00
2022-09-12T14:03:31.958Z,22.00
2022-09-12T14:05:59.700Z,22.00
2022-09-12T14:08:27.403Z,22.00
2022-09-12T14:10:55.239Z,22.00
2022-09-12T14:13:25.781Z,22.00
2022-09-12T14:16:02.610Z,22.00
2022-09-12T14:18:34.715Z,22.00
2022-09-12T14:21:26.400Z,22.00
2022-09-12T14:23:55.170Z,22.00
2022-09-12T14:26:23.791Z,21.90
2022-09-12T14:28:51.908Z,21.90
2022-09-12T14:31:30.972Z,21.90
2022-09-12T14:34:16.437Z,21.90
2022-09-12T14:36:48.059Z,21.90
2022-09-12T14:39:30.584Z,21.90
2022-09-12T14:42:30.056Z,22.00
2022-09-12T14:45:14.451Z,22.00
2022-09-12T14:47:43.143Z,22.00
2022-09-12T14:50:18.161Z,22.00
2022-09-12T14:52:45.521Z,21.90
2022-09-12T14:55:32.762Z,21.90
2022-09-12T14:58:22.896Z,21.90
2022-09-12T15:00:58.405Z,21.90
2022-09-12T15:03:49.545Z,21.80
2022-09-12T15:06:40.299Z,21.80
2022-09-12T15:09:12.730Z,21.80
2022-09-12T15:11:40.351Z,21.80
2022-09-12T15:14:13.614Z,21.80
2022-09-12T15:16:42.081Z,21.80
2022-09-12T15:19:09.242Z,21.80
2022-09-12T15:21:36.530Z,21.90
2022-09-12T15:24:03.746Z,22.00
2022-09-12T15:26:34.311Z,22.10
2022-09-12T15:29:01.733Z,22.10
2022-09-12T15:31:31.156Z,22.20
2022-09-12T15:34:00.764Z,22.30
2022-09-12T15:36:29.052Z,22.30
2022-09-12T15:38:56.643Z,22.30
2022-09-12T15:41:37.039Z,22.30
2022-09-12T15:44:06.048Z,22.20
2022-09-12T15:46:33.175Z,22.20
2022-09-12T15:49:00.377Z,22.10
2022-09-12T15:51:28.053Z,22.10
2022-09-12T15:53:55.399Z,22.10
2022-09-12T15:56:23.055Z,22.00
2022-09-12T15:58:58.905Z,22.00
2022-09-12T16:01:28.365Z,21.90
2022-09-12T16:03:55.613Z,21.90
2022-09-12T16:06:22.755Z,21.80
2022-09-12T16:08:50.111Z,21.80
2022-09-12T16:11:27.899Z,21.70
2022-09-12T16:13:56.999Z,21.60
2022-09-12T16:16:24.271Z,21.60
2022-09-12T16:18:51.438Z,21.60
2022-09-12T16:21:18.840Z,21.50
2022-09-12T16:23:48.614Z,21.50
2022-09-12T16:26:16.578Z,21.40
2022-09-12T16:28:44.411Z,21.40
2022-09-12T16:31:13.479Z,21.30
2022-09-12T16:33:41.449Z,21.30
2022-09-12T16:36:11.080Z,21.20
2022-09-12T16:38:43.114Z,21.20
2022-09-12T16:41:11.006Z,21.10
2022-09-12T16:43:38.262Z,21.10
2022-09-12T16:46:14.826Z,21.10
2022-09-12T16:48:51.819Z,21.00
2022-09-12T16:51:28.693Z,21.00
2022-09-12T16:53:56.707Z,21.00
2022-09-12T16:56:24.334Z,21.00
2022-09-12T16:58:51.944Z,20.90
2022-09-12T17:01:23.898Z,20.90
2022-09-12T17:03:56.772Z,20.90
2022-09-12T17:06:25.449Z,20.80
2022-09-12T17:08:54.793Z,20.70
2022-09-12T17:11:24.579Z,20.70
2022-09-12T17:14:04.393Z,20.70
2022-09-12T17:16:38.843Z,20.60
2022-09-12T17:19:06.854Z,20.50
2022-09-12T17:21:34.188Z,20.50
2022-09-12T17:24:01.428Z,20.50
2022-09-12T17:26:28.779Z,20.40
2022-09-12T17:28:55.880Z,20.40
2022-09-12T17:31:23.115Z,20.30
2022-09-12T17:33:50.295Z,20.20
2022-09-12T17:36:18.457Z,20.20
2022-09-12T17:38:46.495Z,20.10
2022-09-12T17:41:19.474Z,20.10
2022-09-12T17:43:52.384Z,20.00
2022-09-12T17:46:21.539Z,20.00
2022-09-12T17:48:53.715Z,19.90
2022-09-12T17:51:22.740Z,19.90
2022-09-12T17:53:49.849Z,19.80
2022-09-12T17:56:16.854Z,19.70
2022-09-12T17:58:44.032Z,19.70
2022-09-12T18:01:33.505Z,19.60
2022-09-12T18:04:01.553Z,19.60
2022-09-12T18:06:30.736Z,19.50
2022-09-12T18:09:06.617Z,19.40
2022-09-12T18:11:34.735Z,19.40
2022-09-12T18:14:02.089Z,19.30
2022-09-12T18:16:29.674Z,19.30
2022-09-12T18:18:57.895Z,19.20
2022-09-12T18:21:25.043Z,19.10
2022-09-12T18:23:52.245Z,19.10
2022-09-12T18:26:19.430Z,19.00
2022-09-12T18:28:46.726Z,18.90
2022-09-12T18:31:17.198Z,18.90
2022-09-12T18:33:45.168Z,18.80
2022-09-12T18:36:14.683Z,18.70
2022-09-12T18:38:42.838Z,18.70
2022-09-12T18:41:22.923Z,18.60
2022-09-12T18:43:53.731Z,18.50
2022-09-12T18:46:21.251Z,18.50
2022-09-12T18:48:48.694Z,18.40
2022-09-12T18:51:21.122Z,18.30
2022-09-12T18:53:56.870Z,18.30
2022-09-12T18:56:26.763Z,18.20
2022-09-12T18:58:56.817Z,18.20
2022-09-12T19:01:32.629Z,18.10
2022-09-12T19:04:01.277Z,18.10
2022-09-12T19:06:31.209Z,18.00
2022-09-12T19:09:01.705Z,18.00
2022-09-12T19:11:31.382Z,17.90
2022-09-12T19:13:58.511Z,17.90
2022-09-12T19:16:28.231Z,17.90
2022-09-12T19:18:56.728Z,17.80
2022-09-12T19:21:28.637Z,17.80
2022-09-12T19:24:06.196Z,17.80
2022-09-12T19:26:34.284Z,17.80
2022-09-12T19:29:03.187Z,17.80
2022-09-12T19:31:31.668Z,17.80
2022-09-12T19:34:04.852Z,17.80
2022-09-12T19:36:48.128Z,17.70
2022-09-12T19:39:17.276Z,17.70
2022-09-12T19:41:45.434Z,17.70
2022-09-12T19:44:13.189Z,17.70
2022-09-12T19:46:40.833Z,17.70
2022-09-12T19:49:08.214Z,17.70
2022-09-12T19:51:35.466Z,17.70
2022-09-12T19:54:08.478Z,17.70
2022-09-12T19:56:35.861Z,17.60
2022-09-12T19:59:03.738Z,17.60
2022-09-12T20:01:31.128Z,17.60
2022-09-12T20:03:59.501Z,17.60
2022-09-12T20:06:28.714Z,17.60
2022-09-12T20:08:56.525Z,17.60
2022-09-12T20:11:24.207Z,17.50
2022-09-12T20:13:51.869Z,17.50
2022-09-12T20:16:23.062Z,17.50
2022-09-12T20:18:56.169Z,17.50
2022-09-12T20:21:31.895Z,17.50
2022-09-12T20:24:05.927Z,17.50
2022-09-12T20:26:33.673Z,17.50
2022-09-12T20:29:01.073Z,17.50
2022-09-12T20:31:28.836Z,17.50
2022-09-12T20:33:56.326Z,17.50
2022-09-12T20:36:24.082Z,17.50
2022-09-12T20:38:57.197Z,17.50
2022-09-12T20:41:25.289Z,17.50
2022-09-12T20:43:54.447Z,17.50
2022-09-12T20:46:22.849Z,17.50
2022-09-12T20:48:51.496Z,17.50
2022-09-12T20:51:20.308Z,17.50
2022-09-12T20:53:48.251Z,17.50
2022-09-12T20:56:15.527Z,17.50
2022-09-12T20:58:44.584Z,17.50
2022-09-12T21:01:14.116Z,17.50
2022-09-12T21:03:42.761Z,17.50
2022-09-12T21:06:12.784Z,17.50
2022-09-12T21:08:40.588Z,17.50
2022-09-12T21:11:10.633Z,17.50
2022-09-12T21:13:38.293Z,17.50
2022-09-12T21:16:17.922Z,17.50
2022-09-12T21:18:46.045Z,17.50
2022-09-12T21:21:14.788Z,17.50
2022-09-12T21:23:42.662Z,17.50
2022-09-12T21:26:10.201Z,17.50
2022-09-12T21:28:37.411Z,17.50
2022-09-12T21:31:05.634Z,17.50
2022-09-12T21:33:33.662Z,17.40
2022-09-12T21:36:05.891Z,17.40
2022-09-12T21:38:33.917Z,17.40
2022-09-12T21:41:13.009Z,17.40
2022-09-12T21:43:40.593Z,17.40
2022-09-12T21:46:08.650Z,17.40
2022-09-12T21:48:36.634Z,17.30
2022-09-12T21:51:04.480Z,17.30
2022-09-12T21:53:32.253Z,17.30
2022-09-12T21:56:07.741Z,17.20
2022-09-12T21:58:35.711Z,17.20
2022-09-12T22:01:04.838Z,17.20
2022-09-12T22:03:32.506Z,17.10
2022-09-12T22:06:05.582Z,17.10
2022-09-12T22:08:36.327Z,17.00
2022-09-12T22:11:09.689Z,17.10
2022-09-12T22:13:39.635Z,17.00
2022-09-12T22:16:07.894Z,17.00
2022-09-12T22:18:38.869Z,17.00
2022-09-12T22:21:15.262Z,16.90
2022-09-12T22:24:01.066Z,16.90
2022-09-12T22:26:29.258Z,16.90
2022-09-12T22:28:56.779Z,16.80
2022-09-12T22:31:24.289Z,16.80
2022-09-12T22:33:51.651Z,16.80
2022-09-12T22:36:18.697Z,16.80
2022-09-12T22:38:45.874Z,16.80
2022-09-12T22:41:13.500Z,16.80
2022-09-12T22:43:41.166Z,16.80
2022-09-12T22:46:10.185Z,16.70
2022-09-12T22:48:38.383Z,16.80
2022-09-12T22:51:06.131Z,16.70
2022-09-12T22:53:34.460Z,16.70
2022-09-12T22:56:02.315Z,16.70
2022-09-12T22:58:29.626Z,16.70
2022-09-12T23:00:56.887Z,16.70
2022-09-12T23:03:24.601Z,16.70
2022-09-12T23:05:52.238Z,16.70
2022-09-12T23:08:19.730Z,16.60
2022-09-12T23:10:47.198Z,16.60
2022-09-12T23:13:14.379Z,16.70
2022-09-12T23:15:41.666Z,16.60
2022-09-12T23:18:08.882Z,16.60
2022-09-12T23:20:35.928Z,16.60
2022-09-12T23:23:03.534Z,16.60
2022-09-12T23:25:31.191Z,16.50
2022-09-12T23:27:58.847Z,16.50
2022-09-12T23:30:26.010Z,16.50
2022-09-12T23:32:53.140Z,16.50
2022-09-12T23:35:20.336Z,16.50
2022-09-12T23:37:47.962Z,16.50
2022-09-12T23:40:15.530Z,16.50
2022-09-12T23:42:42.882Z,16.50
2022-09-12T23:45:10.643Z,16.50
2022-09-12T23:47:37.953Z,16.50
2022-09-12T23:50:05.599Z,16.50
2022-09-12T23:52:32.932Z,16.50
2022-09-12T23:55:00.276Z,16.50
2022-09-12T23:57:27.536Z,16.50
2022-09-12T23:59:54.686Z,16.40
